Date,TemperatureHighF,TemperatureAvgF,TemperatureLowF,DewpointHighF,DewpointAvgF,DewpointLowF,HumidityHigh,HumidityAvg,HumidityLow,PressureMaxIn,PressureMinIn,WindSpeedMaxMPH,WindSpeedAvgMPH,GustSpeedMaxMPH,PrecipitationSumIn
2013-1-1,78.4,60.1,46.9,64.1,54.6,46.7,99,85,53,29.85,29.63,6,1,11,0.00
2013-1-2,79.0,63.3,51.8,70.8,60.2,51.3,99,90,68,29.70,29.57,6,0,14,0.00
2013-1-3,62.2,58.3,50.2,60.5,56.9,49.9,99,95,86,29.87,29.66,3,0,6,0.07
2013-1-4,61.7,54.9,47.5,56.5,52.1,46.6,99,91,82,29.94,29.83,4,0,6,0.01
2013-1-5,70.9,53.9,39.9,58.1,49.4,39.7,99,86,62,29.97,29.86,5,0,8,0.00
2013-1-6,66.7,58.2,54.3,62.6,56.0,52.9,98,92,80,29.87,29.72,3,0,5,0.15
2013-1-7,67.6,56.6,47.3,57.3,52.2,45.4,98,86,67,29.91,29.79,6,1,12,0.01
2013-1-8,75.0,63.4,58.3,69.5,60.6,55.3,97,91,81,29.89,29.80,4,0,8,0.00
2013-1-9,81.1,68.2,61.3,75.2,66.2,60.5,99,93,78,29.96,29.84,3,0,6,0.00
2013-1-10,83.7,69.7,61.2,77.0,67.0,60.6,99,92,70,29.97,29.88,4,0,5,0.14
2013-1-11,85.3,68.3,57.9,75.3,63.3,57.7,99,87,50,29.89,29.77,8,0,14,0.00
2013-1-12,71.4,68.5,57.2,70.9,68.0,56.9,99,98,96,29.83,29.78,2,0,3,0.00
2013-1-13,84.9,71.8,59.5,72.9,67.4,58.7,98,87,55,29.82,29.69,5,0,10,0.00
2013-1-14,86.7,67.7,56.3,72.0,62.5,56.0,99,85,50,29.82,29.72,5,0,11,0.00
2013-1-15,85.8,68.6,57.9,71.8,64.3,57.7,99,87,56,29.78,29.66,6,0,9,0.00
2013-1-16,84.2,69.7,60.8,70.5,63.7,59.4,99,83,48,29.71,29.59,7,1,13,0.00
2013-1-17,78.1,59.8,45.0,68.1,54.8,36.1,99,84,65,29.76,29.51,14,1,20,0.11
2013-1-18,64.9,52.9,43.2,50.0,43.7,35.4,84,72,57,30.00,29.76,0,0,0,0.00
2013-1-19,72.7,58.5,50.7,59.1,52.7,45.8,93,81,61,29.99,29.81,0,0,0,0.00
2013-1-20,84.2,63.2,51.6,60.7,54.3,49.0,96,77,37,29.83,29.67,0,0,0,0.00
2013-1-21,76.8,58.9,48.7,59.1,51.1,44.8,99,78,46,29.75,29.63,0,0,0,0.00
2013-1-22,68.5,54.2,42.3,46.7,38.9,31.6,86,60,28,29.92,29.70,0,0,0,0.00
2013-1-23,70.5,50.1,35.1,44.9,38.1,32.4,96,69,27,30.04,29.89,0,0,0,0.00
2013-1-24,78.6,57.0,41.7,57.9,47.9,39.3,97,75,43,29.93,29.80,0,0,0,0.00
2013-1-25,82.4,62.7,53.1,64.8,52.9,48.1,95,75,31,29.94,29.77,0,0,0,0.00
2013-1-26,81.9,63.2,48.7,65.7,55.8,47.5,98,79,51,29.86,29.76,0,0,0,0.00
2013-1-27,76.5,62.9,57.0,64.8,57.9,54.8,96,85,62,29.99,29.83,2,0,4,0.07
2013-1-28,87.6,66.8,55.8,69.9,61.6,55.2,98,85,48,29.99,29.86,3,0,4,0.11
2013-1-29,94.3,68.4,55.8,74.4,63.3,55.5,99,86,50,29.89,29.71,4,0,7,0.00
2013-1-30,86.9,76.1,63.7,68.4,65.1,60.2,99,70,48,29.69,29.40,16,2,24,0.05
2013-1-31,64.8,55.2,41.9,60.2,39.0,29.2,96,59,30,29.87,29.49,11,3,20,0.06
2013-2-1,68.4,55.2,35.6,37.6,32.9,29.9,90,49,24,29.95,29.85,8,1,13,0.00
2013-2-2,74.7,51.4,35.6,48.5,37.1,28.5,89,62,27,29.98,29.78,5,1,8,0.00
2013-2-3,71.1,57.3,37.2,46.1,35.1,25.6,98,49,20,29.81,29.65,9,2,14,0.01
2013-2-4,69.3,51.5,36.3,52.0,42.0,34.4,99,74,31,29.76,29.66,4,0,8,0.00
2013-2-5,73.8,56.6,42.4,53.2,46.0,38.3,99,72,33,29.73,29.61,4,0,7,0.00
2013-2-6,72.7,62.0,55.9,61.2,56.9,51.0,96,84,64,29.78,29.66,4,0,6,0.00
2013-2-7,85.3,67.2,58.6,68.3,62.9,58.1,99,88,49,29.72,29.41,11,1,16,0.02
2013-2-8,73.8,63.7,54.7,66.5,56.8,52.1,93,79,55,29.70,29.44,8,2,13,0.00
2013-2-9,72.3,56.3,46.8,56.9,48.8,43.6,99,79,43,29.89,29.70,10,2,14,0.00
2013-2-10,84.6,62.1,45.9,66.1,54.6,45.1,99,80,44,29.93,29.78,4,0,10,0.00
2013-2-11,83.7,68.5,57.4,65.3,60.9,56.0,98,79,48,29.81,29.66,11,1,21,0.00
2013-2-12,84.4,70.0,59.7,68.5,64.5,58.6,99,84,53,29.69,29.49,10,2,17,0.00
2013-2-13,77.2,70.9,64.4,74.6,65.3,49.4,98,83,50,29.54,29.40,9,3,16,0.21
2013-2-14,65.7,54.8,48.6,55.7,50.9,47.5,96,87,62,29.70,29.52,5,1,8,0.05
2013-2-15,72.7,53.1,41.5,53.8,46.4,41.3,99,81,43,29.72,29.59,7,1,10,0.00
2013-2-16,60.6,48.7,41.7,52.2,41.8,22.5,99,79,46,29.76,29.53,9,2,17,0.02
2013-2-17,41.7,38.8,36.9,23.0,21.0,17.9,50,48,45,29.80,29.76,5,2,11,0.00
2013-2-18,71.8,45.8,27.0,44.1,35.4,23.2,96,72,36,30.03,29.85,4,1,6,0.00
2013-2-19,78.3,61.3,41.2,61.6,51.9,40.1,99,75,42,29.81,29.64,7,3,11,0.00
2013-2-20,70.7,55.5,43.7,54.5,40.9,32.2,95,64,26,29.80,29.69,2,1,4,0.00
2013-2-21,75.7,59.5,39.9,56.0,50.2,39.4,98,75,45,29.77,29.67,3,0,4,0.00
2013-2-22,85.8,71.8,59.9,69.2,65.1,58.8,97,82,50,29.70,29.59,2,0,2,0.00
2013-2-23,83.5,74.0,62.8,67.2,65.6,61.3,96,77,53,29.56,29.46,7,2,11,0.00
2013-2-24,76.3,61.1,58.1,65.0,57.7,53.6,99,89,50,29.62,29.47,2,0,4,0.02
2013-2-25,68.0,63.7,57.7,66.8,62.5,56.3,99,96,86,29.56,29.41,9,2,18,0.00
2013-2-26,79.5,68.8,60.8,70.5,63.4,53.6,99,85,43,29.44,29.28,14,3,22,0.01
2013-2-27,71.2,61.0,54.7,56.4,49.8,45.3,86,68,42,29.59,29.43,10,2,13,0.00
2013-2-28,72.5,60.0,45.1,48.0,42.7,33.6,91,56,32,29.59,29.45,11,2,18,0.00
2013-3-1,62.6,54.6,48.6,40.1,37.3,35.1,64,52,39,29.62,29.50,8,2,11,0.00
2013-3-2,57.7,47.9,38.1,39.1,32.7,25.8,89,58,32,29.65,29.53,13,3,19,0.01
2013-3-3,50.2,42.2,32.5,33.4,29.6,25.1,83,62,45,29.76,29.60,10,2,15,0.02
2013-3-4,69.1,46.2,28.6,39.3,29.9,20.8,91,61,22,29.86,29.73,7,1,10,0.00
2013-3-5,77.4,58.2,37.6,57.9,45.1,36.5,98,67,26,29.81,29.51,11,3,19,0.00
2013-3-6,65.1,54.4,45.0,60.5,35.8,24.8,92,53,24,29.75,29.47,13,5,21,0.04
2013-3-7,70.2,50.5,36.5,44.9,36.5,28.5,93,62,28,29.86,29.75,7,1,10,0.00
2013-3-8,76.3,52.7,36.0,51.8,42.5,33.2,99,74,24,29.86,29.77,9,1,14,0.00
2013-3-9,78.1,54.6,39.9,58.1,46.5,39.7,99,78,38,29.90,29.79,8,1,16,0.01
2013-3-10,86.7,62.8,45.9,65.4,53.0,45.1,99,75,37,29.85,29.74,5,1,8,0.02
2013-3-11,80.4,63.4,48.6,67.7,56.6,48.1,99,81,53,29.76,29.51,4,0,8,0.00
2013-3-12,72.7,65.1,54.9,69.0,60.3,47.6,99,85,58,29.63,29.45,8,1,11,0.06
2013-3-13,76.3,60.6,47.8,47.8,38.0,29.6,82,48,21,29.80,29.62,8,1,12,0.00
2013-3-14,68.2,52.5,39.4,41.5,32.8,26.3,91,50,27,29.93,29.77,7,1,11,0.00
2013-3-15,77.9,53.3,34.5,47.2,37.7,30.9,99,64,24,29.91,29.73,7,1,9,0.00
2013-3-16,82.8,60.3,43.0,54.9,45.9,40.6,98,67,25,29.79,29.60,8,2,13,0.01
2013-3-17,80.8,70.8,43.5,58.3,53.1,42.2,96,57,32,29.74,29.59,8,1,11,0.00
2013-3-18,81.9,68.1,59.5,66.2,61.2,58.2,98,81,49,29.67,29.47,9,1,17,0.01
2013-3-19,87.3,69.9,59.2,65.7,60.3,55.9,96,75,40,29.64,29.50,8,1,14,0.04
2013-3-20,71.8,60.8,50.7,59.5,55.5,50.5,99,84,58,29.62,29.45,11,2,16,0.08
2013-3-21,70.7,53.8,40.6,50.8,39.3,27.9,99,66,22,29.58,29.47,8,1,11,0.01
2013-3-22,75.2,56.9,41.9,47.9,43.3,37.8,94,65,29,29.68,29.54,8,1,13,0.06
2013-3-23,70.5,60.1,50.9,68.0,58.9,47.3,99,96,85,29.62,29.40,11,0,14,1.75
2013-3-24,85.5,73.6,61.7,74.5,67.1,61.1,99,81,53,29.43,29.13,11,3,18,0.35
2013-3-25,69.3,61.1,52.9,63.5,38.4,23.2,89,48,19,29.65,29.23,14,4,19,0.00
2013-3-26,60.8,49.9,40.5,34.2,28.0,23.9,75,44,27,29.86,29.64,10,2,15,0.00
2013-3-27,68.2,49.0,35.2,38.6,32.4,27.1,88,57,26,29.94,29.82,6,1,10,0.01
2013-3-28,41.0,41.0,41.0,37.7,37.7,37.7,88,88,88,29.88,29.88,0,0,0,0.01
2013-3-29,79.5,66.6,48.2,67.2,42.2,31.4,96,47,22,29.94,29.52,6,1,9,0.01
2013-3-30,83.1,61.1,41.7,55.6,46.2,39.0,99,66,24,29.86,29.68,8,1,14,0.00
2013-3-31,64.0,64.0,64.0,52.5,52.5,52.5,66,66,66,29.71,29.71,0,0,0,0.00
2013-4-1,84.6,71.5,63.9,66.3,59.4,52.5,92,67,49,29.71,29.45,8,1,14,0.26
2013-4-2,85.1,66.9,52.5,62.0,53.3,44.5,99,69,27,29.70,29.56,8,1,12,0.00
2013-4-3,86.4,65.0,50.9,72.6,59.6,50.5,99,85,48,29.69,29.60,6,1,9,0.21
2013-4-4,78.1,70.1,64.4,73.4,66.7,64.1,99,90,71,29.66,29.43,11,2,17,0.31
2013-4-5,66.6,60.2,54.9,65.4,58.9,52.8,99,96,91,29.61,29.38,7,1,11,0.07
2013-4-6,75.2,61.9,50.2,59.4,54.9,49.6,99,80,54,29.77,29.60,11,2,14,0.00
2013-4-7,88.2,68.8,56.3,70.7,59.8,55.1,99,77,41,29.78,29.67,4,0,6,0.00
2013-4-8,92.1,69.6,52.3,72.5,59.7,51.8,99,76,40,29.75,29.66,4,0,8,0.02
2013-4-9,93.9,72.0,57.2,74.7,63.3,56.9,99,78,42,29.78,29.67,4,0,6,0.01
2013-4-10,90.3,71.2,54.5,76.1,63.6,53.7,99,80,46,29.74,29.59,3,0,6,0.00
2013-4-11,93.7,76.0,65.7,77.0,70.2,64.8,99,84,53,29.59,29.39,7,1,11,0.05
2013-4-12,87.1,76.7,69.6,75.5,70.2,65.3,98,82,54,29.47,29.34,11,2,21,0.01
2013-4-13,90.7,73.1,57.4,68.4,57.5,50.4,92,62,30,29.61,29.45,7,1,10,0.00
2013-4-14,80.6,67.2,55.8,68.6,63.6,54.8,99,89,64,29.60,29.46,6,1,8,0.44
2013-4-15,91.0,72.0,60.4,71.6,64.9,60.2,99,81,45,29.71,29.38,8,1,13,0.00
2013-4-16,90.5,73.3,63.9,75.0,67.3,63.0,99,84,49,29.78,29.67,8,1,14,0.00
2013-4-17,83.1,71.0,61.2,75.7,66.1,60.4,99,86,62,29.77,29.68,7,1,11,0.00
2013-4-18,97.3,76.1,61.9,77.1,67.5,61.3,99,79,41,29.69,29.55,4,0,7,0.00
2013-4-19,93.4,77.3,69.4,75.7,71.2,66.3,98,83,46,29.60,29.44,11,1,18,0.02
2013-4-20,74.5,57.7,52.3,72.4,55.4,51.2,98,92,78,29.78,29.56,8,1,11,0.22
2013-4-21,71.1,63.9,52.7,65.3,60.3,51.6,98,88,72,29.78,29.68,12,4,18,0.15
2013-4-22,66.0,63.1,59.9,65.8,61.5,56.5,99,95,83,29.73,29.62,13,4,18,0.08
2013-4-23,78.4,65.5,53.8,63.1,57.8,52.1,97,78,51,29.76,29.65,9,2,14,0.00
2013-4-24,91.4,69.1,51.1,72.4,59.8,50.8,99,77,42,29.75,29.66,5,0,9,0.01
2013-4-25,93.2,73.4,56.5,70.6,63.3,56.2,99,75,38,29.80,29.69,5,1,8,0.00
2013-4-26,85.3,71.9,62.4,70.3,64.1,59.0,95,78,53,29.88,29.75,11,2,18,0.00
2013-4-27,91.2,76.3,59.0,69.1,61.6,57.1,95,64,37,29.85,29.75,8,1,14,0.00
2013-4-28,90.9,73.5,61.5,73.4,65.3,60.2,99,79,45,29.77,29.58,3,0,7,0.00
2013-4-29,71.4,68.0,62.8,69.6,66.5,61.3,98,95,93,29.62,29.57,2,0,4,0.00
2013-4-30,86.0,73.4,64.8,70.1,65.9,63.6,97,79,54,30.00,29.90,8,1,13,4.65
2013-5-1,79.9,68.8,62.1,70.7,65.6,61.5,99,90,72,30.02,29.94,13,3,19,0.00
2013-5-2,69.4,68.3,66.9,69.2,67.8,65.7,99,98,91,29.99,29.85,11,2,19,3.56
2013-5-3,70.5,66.9,64.9,69.7,66.3,64.7,99,98,95,29.86,29.78,14,4,19,1.88
2013-5-4,69.8,66.8,66.6,69.4,65.6,65.4,99,96,96,29.79,29.71,4,4,9,0.73
2013-5-5,69.6,64.8,60.6,69.4,63.9,58.9,99,97,84,29.84,29.67,6,2,12,0.01
2013-5-6,77.4,65.5,57.9,57.5,51.9,48.1,94,65,37,29.94,29.83,4,1,9,0.00
2013-5-7,78.6,72.4,54.5,61.4,58.4,53.4,96,62,49,29.99,29.87,11,3,19,0.00
2013-5-8,85.3,69.6,55.6,67.7,58.6,54.8,99,72,41,30.07,29.96,6,1,11,0.00
2013-5-9,92.7,73.1,58.3,70.2,62.3,57.4,99,73,42,30.10,30.02,4,0,7,0.00
2013-5-10,95.9,74.9,59.4,74.0,65.7,58.8,99,77,43,30.10,29.95,6,0,100,0.00
2013-5-11,91.4,74.4,65.8,72.9,69.1,65.6,99,85,49,30.02,29.88,10,1,17,0.09
2013-5-12,88.9,75.8,65.5,71.7,66.8,60.8,99,77,45,29.99,29.89,9,2,12,0.06
2013-5-13,83.8,70.8,57.6,62.6,53.1,40.5,92,58,25,30.11,29.96,7,1,11,0.00
2013-5-14,87.8,67.6,50.2,60.6,52.7,40.3,99,66,23,30.21,30.11,7,1,11,0.00
2013-5-15,93.9,71.0,53.2,68.8,59.2,52.7,99,71,37,30.20,30.04,4,0,8,0.00
2013-5-16,66.7,64.8,58.3,66.2,63.8,57.7,99,97,88,30.08,30.02,3,0,4,0.00
2013-5-17,66.7,66.7,66.7,66.2,66.2,66.2,98,98,98,30.08,30.08,1,1,4,0.00
2013-5-18,66.7,66.7,66.7,66.2,66.2,66.2,98,98,98,30.08,30.08,1,1,4,0.00
2013-5-19,93.6,74.4,66.7,80.1,70.0,66.2,98,87,60,30.08,29.96,4,0,7,0.02
2013-5-20,92.7,75.9,68.5,78.9,72.2,68.0,99,89,61,30.06,29.97,6,0,10,0.00
2013-5-21,86.5,73.5,67.5,81.0,71.6,67.2,99,94,69,30.02,29.90,8,0,11,1.04
2013-5-22,90.5,77.4,65.3,79.3,72.7,65.0,99,86,59,29.95,29.86,5,0,9,0.02
2013-5-23,93.7,78.5,68.2,76.3,71.0,67.9,99,80,46,29.94,29.85,6,0,9,0.00
2013-5-24,94.6,80.0,68.0,74.3,66.0,55.3,99,68,31,30.07,29.90,8,1,11,0.00
2013-5-25,88.2,73.4,61.0,66.3,60.6,55.6,97,69,37,30.22,30.06,9,2,14,0.02
2013-5-26,90.7,72.4,57.0,69.4,59.3,55.0,99,70,31,30.20,30.12,8,1,12,0.01
2013-5-27,92.3,73.7,57.4,75.1,64.0,56.8,99,75,45,30.18,30.09,6,0,9,0.00
2013-5-28,93.9,76.8,62.8,76.1,67.9,61.5,98,77,46,30.15,30.08,5,0,8,0.00
2013-5-29,95.0,78.7,67.3,80.4,72.3,66.5,99,82,54,30.12,30.06,6,0,10,0.00
2013-5-30,91.2,79.1,70.2,82.0,74.2,69.4,99,86,61,30.14,30.05,5,0,9,0.22
2013-5-31,93.9,82.7,70.0,78.1,73.1,69.1,97,75,53,30.11,30.04,4,0,8,0.01
2013-6-1,95.9,80.6,70.0,78.9,73.1,69.2,99,80,51,30.07,29.98,4,0,10,0.01
2013-6-2,95.2,80.8,70.5,82.7,75.0,70.0,99,84,57,30.02,29.83,3,0,5,0.00
2013-6-3,96.8,80.3,72.3,78.4,74.2,71.4,99,84,50,29.93,29.79,8,1,12,0.71
2013-6-4,87.3,76.6,70.9,80.1,74.3,70.3,99,93,72,29.98,29.88,7,0,11,0.17
2013-6-5,88.5,75.3,71.6,79.3,73.3,70.7,99,94,68,29.98,29.89,6,0,8,0.60
2013-6-6,79.9,74.3,71.6,79.3,73.7,70.7,99,98,97,29.91,29.53,8,1,18,1.51
2013-6-7,91.4,80.1,71.6,75.3,72.2,69.5,98,79,54,29.88,29.55,11,3,17,0.02
2013-6-8,98.8,81.6,72.0,80.7,74.1,70.2,98,80,46,30.04,29.88,4,0,8,0.00
2013-6-9,93.7,79.2,71.2,81.9,74.8,70.1,97,87,63,30.09,30.00,4,0,8,0.12
2013-6-10,96.3,80.7,72.1,80.9,74.4,71.3,99,83,51,30.07,29.95,6,0,10,0.09
2013-6-11,94.8,81.6,72.5,78.7,73.8,70.6,98,80,49,30.04,29.94,8,1,13,0.00
2013-6-12,99.5,84.2,71.8,78.3,73.5,69.7,97,74,42,30.03,29.91,6,1,9,0.00
2013-6-13,80.8,78.5,77.5,75.1,74.4,73.6,91,87,82,29.96,29.92,2,0,4,0.00
2013-6-14,92.7,78.6,72.0,78.4,72.6,67.3,94,83,62,29.91,29.73,12,2,20,0.31
2013-6-15,94.6,80.3,70.7,76.4,71.5,67.6,97,77,47,30.06,29.90,4,0,9,0.00
2013-6-16,96.6,81.8,70.7,78.4,72.3,68.3,96,75,48,30.09,29.99,6,0,8,0.00
2013-6-17,99.3,83.1,74.3,81.7,75.6,72.4,97,80,52,30.06,29.90,4,0,7,0.00
2013-6-18,97.0,83.1,71.8,78.0,72.4,69.0,98,73,42,30.00,29.86,8,1,11,0.00
2013-6-19,100.8,84.0,72.3,78.7,73.4,70.5,97,73,41,30.00,29.87,6,1,9,0.00
2013-6-20,94.5,79.2,71.8,81.7,74.4,69.9,97,86,56,30.06,29.95,7,0,12,0.09
2013-6-21,88.2,78.4,71.6,82.1,74.5,70.1,98,88,68,30.09,30.00,5,0,10,0.39
2013-6-22,91.4,77.8,72.3,82.7,74.3,71.5,98,90,58,30.09,30.03,4,0,8,0.20
2013-6-23,96.3,82.5,70.7,83.1,74.2,14.0,98,79,10,30.12,30.04,5,0,8,0.00
2013-6-24,98.1,82.2,71.8,81.8,74.6,70.3,97,80,49,30.16,30.05,3,0,6,0.00
2013-6-25,100.9,83.0,71.8,79.4,73.9,70.1,97,77,44,30.14,30.00,4,0,10,0.00
2013-6-26,98.4,79.9,72.0,79.3,73.9,68.0,97,84,44,30.06,29.95,6,0,14,0.19
2013-6-27,98.2,82.6,70.7,78.1,73.7,69.8,97,77,46,30.00,29.84,9,1,16,0.00
2013-6-28,94.5,85.2,0.0,78.7,74.5,71.3,89,70,49,29.92,29.81,9,1,15,0.00
2013-6-29,90.0,81.2,74.7,77.5,74.1,71.1,93,80,58,29.84,29.77,10,2,15,0.00
2013-6-30,93.9,78.9,73.4,78.0,74.6,70.0,96,87,54,29.90,29.80,14,1,28,0.30
2013-7-1,86.4,75.6,72.3,77.4,73.1,70.1,97,92,73,30.05,29.86,11,1,16,2.17
2013-7-2,73.4,72.7,72.5,72.8,71.9,71.6,98,97,97,30.07,30.01,2,0,4,0.07
2013-7-3,72.7,72.7,72.7,71.8,71.8,71.8,97,97,97,30.07,30.07,0,0,0,0.00
2013-7-4,95.0,79.7,72.7,80.5,74.5,69.9,97,85,60,30.19,30.07,5,0,10,0.43
2013-7-5,96.1,81.2,71.2,83.4,74.7,69.5,98,82,55,30.20,30.12,4,0,10,0.01
2013-7-6,96.3,82.1,72.1,83.4,74.9,70.7,97,81,55,30.18,30.09,4,0,8,0.00
2013-7-7,98.2,82.9,71.2,82.7,74.5,70.1,97,78,49,30.19,30.09,5,0,8,0.00
2013-7-8,100.0,83.5,71.6,82.3,74.1,70.1,97,77,45,30.20,30.12,4,0,8,0.00
2013-7-9,99.3,83.3,72.3,81.5,73.3,69.9,97,75,44,30.21,30.10,5,0,8,0.00
2013-7-10,100.4,82.7,69.8,81.6,72.8,68.3,97,75,44,30.12,29.98,4,0,6,0.00
2013-7-11,101.5,82.6,72.1,78.2,73.1,70.0,96,76,44,30.04,29.90,6,0,11,0.00
2013-7-12,95.4,78.3,72.5,79.1,73.3,70.4,97,86,47,29.97,29.90,5,0,8,0.27
2013-7-13,96.4,78.1,70.7,80.6,73.3,69.2,98,86,53,30.04,29.93,4,0,9,0.31
2013-7-14,93.2,78.4,70.7,80.9,73.5,69.5,98,86,58,30.16,30.01,3,0,7,0.01
2013-7-15,93.9,79.5,70.9,81.8,74.3,69.7,98,85,60,30.20,30.11,10,1,14,0.05
2013-7-16,95.4,81.9,73.2,83.4,75.3,72.1,98,82,55,30.23,30.17,8,1,13,0.01
2013-7-17,96.1,82.9,72.9,82.4,74.1,71.4,97,77,48,30.23,30.12,8,1,12,0.01
2013-7-18,96.6,82.3,71.2,83.0,73.7,70.0,97,78,47,30.17,30.07,8,0,11,0.00
2013-7-19,92.1,79.6,72.1,76.2,72.5,70.0,96,80,53,30.15,30.06,8,1,11,0.00
2013-7-20,93.6,78.1,71.2,77.8,72.6,69.1,96,84,55,30.13,30.03,6,0,8,0.04
2013-7-21,94.8,79.4,72.3,78.4,74.0,70.6,97,85,53,30.13,30.04,9,1,17,0.18
2013-7-22,94.3,79.6,73.8,78.9,74.7,70.4,97,86,49,30.15,30.05,11,2,18,0.43
2013-7-23,92.5,80.5,76.6,77.2,74.9,72.0,93,83,58,30.08,29.94,10,4,20,0.01
2013-7-24,88.7,79.3,73.9,76.5,74.1,70.9,95,85,65,29.95,29.83,8,2,13,0.11
2013-7-25,93.0,81.8,73.6,76.3,73.9,71.8,96,79,55,29.99,29.85,6,1,11,0.00
2013-7-26,97.9,83.5,72.9,83.1,75.2,69.7,97,78,46,30.04,29.96,7,0,12,0.00
2013-7-27,100.2,82.5,72.9,80.3,75.0,68.5,97,80,50,30.03,29.90,4,0,8,0.05
2013-7-28,94.5,79.6,72.5,80.2,74.0,70.1,98,84,55,30.08,29.95,4,0,9,0.01
2013-7-29,101.3,82.9,70.7,81.1,73.4,69.5,97,76,45,30.19,30.05,4,0,6,0.00
2013-7-30,98.8,80.7,74.5,80.5,76.0,71.4,96,87,48,30.21,30.11,8,0,16,0.93
2013-7-31,97.3,78.9,72.1,82.7,74.9,70.7,98,89,56,30.16,30.06,4,0,9,0.18
2013-8-1,94.5,77.3,71.6,81.9,73.4,70.4,98,89,56,30.08,29.96,6,0,11,0.31
2013-8-2,99.1,81.3,70.9,82.7,74.7,70.3,99,83,50,30.07,29.97,5,0,7,0.01
2013-8-3,94.8,81.8,73.6,81.8,75.6,72.7,98,83,52,30.09,30.00,5,0,8,0.00
2013-8-4,99.9,87.6,77.2,79.4,75.1,71.9,94,70,42,30.07,29.93,5,1,9,0.00
2013-8-5,99.9,86.3,77.7,82.6,77.3,74.2,95,76,49,30.03,29.92,6,0,11,0.00
2013-8-6,98.2,85.4,76.5,84.6,77.3,74.8,96,79,53,30.02,29.93,6,0,9,0.00
2013-8-7,97.7,84.2,76.1,82.8,76.2,73.8,95,79,50,30.03,29.96,7,0,10,0.00
2013-8-8,102.0,84.1,74.5,83.0,76.2,73.3,97,79,48,30.09,29.99,4,0,7,0.00
2013-8-9,100.4,83.1,73.8,84.2,75.5,72.6,97,80,47,30.11,30.01,5,0,8,0.01
2013-8-10,99.7,83.5,72.5,80.7,75.4,71.0,97,79,49,30.17,30.08,4,0,6,0.00
2013-8-11,103.3,85.1,74.5,82.3,75.3,72.3,97,76,44,30.19,30.09,4,0,8,0.01
2013-8-12,103.3,85.6,75.0,82.1,76.0,73.5,96,75,45,30.16,30.01,5,0,8,0.01
2013-8-13,99.1,84.9,74.7,78.7,74.9,72.9,95,75,44,30.07,29.91,7,1,10,0.00
2013-8-14,102.7,84.1,74.3,80.1,75.1,70.8,96,77,44,30.03,29.88,7,1,11,0.01
2013-8-15,99.1,81.6,72.7,82.4,74.5,70.9,97,81,46,30.07,29.93,8,0,11,0.38
2013-8-16,94.3,78.5,71.6,79.1,73.8,70.3,98,87,56,30.09,29.96,6,0,12,0.02
2013-8-17,97.2,77.9,75.4,79.4,75.5,74.2,96,93,57,30.12,30.03,2,0,3,0.05
2013-8-18,99.1,83.6,74.3,85.8,77.0,73.1,97,83,52,30.15,30.06,4,0,7,0.01
2013-8-19,102.6,85.2,74.7,84.1,76.3,73.8,97,78,46,30.14,29.99,4,0,7,0.00
2013-8-20,101.1,85.0,74.5,83.3,76.1,73.3,96,78,44,30.16,30.04,4,0,8,0.01
2013-8-21,93.7,81.1,74.7,84.4,76.4,73.4,96,86,60,30.19,30.10,8,0,12,0.13
2013-8-22,84.2,76.6,72.1,82.5,74.9,70.5,97,95,87,30.19,30.04,9,0,14,1.88
2013-8-23,90.0,77.3,73.4,84.3,75.5,72.8,98,94,73,30.08,30.01,4,0,7,0.35
2013-8-24,88.0,78.8,73.9,82.1,76.3,73.4,99,92,77,30.18,30.04,8,1,17,0.04
2013-8-25,86.4,78.3,73.6,79.4,74.4,71.8,98,88,71,30.23,30.14,11,2,16,0.14
2013-8-26,92.7,80.6,72.5,78.1,73.9,70.9,97,82,57,30.22,30.09,10,2,16,0.01
2013-8-27,96.3,81.2,72.3,78.7,72.2,69.6,97,77,46,30.13,30.03,7,0,10,0.00
2013-8-28,97.3,80.1,69.3,77.2,71.1,68.1,97,77,48,30.08,29.99,4,0,7,0.00
2013-8-29,97.7,82.4,70.5,76.6,70.9,67.6,95,71,41,30.06,29.92,8,1,8,0.00
2013-8-30,100.2,84.0,73.6,78.9,74.5,70.9,95,75,43,29.99,29.87,5,0,8,0.00
2013-8-31,100.2,81.9,73.0,79.4,74.4,70.5,97,80,45,29.98,29.88,4,0,8,0.00
2013-9-1,97.2,82.1,72.1,79.2,73.1,70.5,97,77,44,29.99,29.88,6,0,8,0.00
2013-9-2,98.1,81.7,71.1,79.1,72.8,69.9,97,77,44,30.01,29.90,6,1,10,0.00
2013-9-3,95.2,82.1,73.8,77.7,74.0,71.6,97,78,49,30.02,29.91,5,1,10,0.00
2013-9-4,99.7,82.4,73.9,80.5,73.8,69.5,96,78,42,30.11,30.00,4,0,7,0.00
2013-9-5,99.9,82.8,72.9,77.8,74.2,71.1,96,78,43,30.12,30.01,4,0,8,0.00
2013-9-6,97.2,79.5,72.7,78.9,73.9,70.6,96,84,50,30.09,30.00,7,0,10,0.00
2013-9-7,95.5,80.8,71.1,81.1,71.7,69.6,97,77,46,30.06,29.97,10,1,14,0.00
2013-9-8,97.3,80.2,68.9,79.4,69.8,67.2,97,74,42,30.01,29.94,8,1,13,0.00
2013-9-9,97.9,80.2,68.5,80.5,70.2,67.1,97,75,44,30.10,29.99,8,1,11,0.00
2013-9-10,95.4,80.1,69.3,78.0,70.6,67.4,96,75,48,30.17,30.07,8,1,14,0.00
2013-9-11,95.0,79.9,70.7,80.6,72.2,68.9,96,79,50,30.14,30.06,8,1,13,0.00
2013-9-12,93.2,78.8,70.7,81.9,73.4,69.2,97,85,58,30.08,29.92,8,0,11,0.00
2013-9-13,97.5,81.2,70.2,78.2,71.7,67.0,98,76,40,29.95,29.79,4,0,8,0.00
2013-9-14,100.6,82.2,70.9,77.3,72.1,69.1,96,75,39,30.03,29.84,4,0,8,0.00
2013-9-15,100.6,83.2,71.6,83.0,74.5,69.8,97,78,46,30.13,30.01,6,0,8,0.00
2013-9-16,100.6,83.1,72.0,80.5,74.2,70.4,97,77,45,30.12,30.02,7,0,11,0.00
2013-9-17,94.3,81.0,72.1,81.9,73.5,70.5,97,80,52,30.12,30.02,11,1,17,0.00
2013-9-18,84.7,76.2,72.5,79.9,72.4,69.7,97,89,66,30.13,30.05,11,2,20,0.00
2013-9-19,90.9,77.3,71.1,78.2,72.2,68.0,95,85,64,30.11,30.04,8,0,11,0.05
2013-9-20,93.2,77.1,68.0,76.7,70.0,66.8,97,81,52,30.08,29.95,8,1,11,0.00
2013-9-21,94.5,77.8,66.7,77.1,70.0,65.9,98,79,46,29.99,29.77,4,0,8,0.00
2013-9-22,82.4,76.0,72.3,75.9,72.5,70.0,96,89,77,29.88,29.77,7,1,12,0.09
2013-9-23,85.8,76.0,72.0,79.6,73.8,70.7,98,93,80,29.99,29.86,3,0,4,0.04
2013-9-24,88.9,76.9,72.3,80.8,74.3,70.8,98,92,70,29.99,29.84,4,0,8,0.04
2013-9-25,85.3,77.9,73.4,76.2,73.9,71.5,98,88,69,29.85,29.75,8,1,14,0.00
2013-9-26,80.6,75.0,69.8,76.8,71.8,67.3,98,90,77,29.93,29.75,6,1,11,0.02
2013-9-27,84.4,74.0,67.6,73.4,69.5,66.5,97,86,67,30.03,29.89,11,2,19,0.07
2013-9-28,80.4,73.6,71.1,73.8,69.5,65.8,96,87,70,30.10,29.99,11,2,17,0.01
2013-9-29,85.3,75.3,69.1,75.3,69.4,66.1,96,83,62,30.05,29.98,12,2,17,0.02
2013-9-30,86.2,74.3,67.3,75.3,67.4,64.9,97,81,55,30.08,29.96,9,1,13,0.00
2013-10-1,88.7,75.1,65.5,71.4,66.0,62.7,94,75,47,30.13,30.04,8,1,11,0.00
2013-10-2,90.1,74.4,63.0,74.6,66.5,61.8,98,79,51,30.13,30.07,11,1,13,0.00
2013-10-3,94.3,77.1,67.5,79.0,71.1,65.9,97,84,55,30.13,30.04,8,1,10,0.00
2013-10-4,96.8,80.1,0.0,81.2,71.9,67.9,97,78,48,30.13,30.04,7,1,11,0.00
2013-10-5,95.5,78.3,68.9,81.3,71.9,67.7,98,83,53,30.11,30.03,8,1,12,0.00
2013-10-6,97.3,79.7,71.6,82.2,74.0,69.5,98,84,53,30.04,29.89,2,0,4,0.08
2013-10-7,90.9,75.8,70.2,79.4,72.9,69.0,97,91,60,29.91,29.77,5,0,8,0.14
2013-10-8,85.5,73.9,67.3,77.3,71.4,66.1,97,92,72,30.03,29.80,10,2,17,0.02
2013-10-9,76.5,65.1,61.9,67.7,63.2,60.3,98,94,73,30.12,30.01,4,1,8,0.01
2013-10-10,91.4,71.9,61.3,71.8,63.9,60.8,99,80,41,30.10,30.00,4,0,8,0.01
2013-10-11,89.4,76.2,60.1,72.3,62.6,59.2,99,68,40,30.07,29.95,5,0,8,0.00
2013-10-12,91.6,75.7,63.1,70.7,63.8,60.8,98,71,38,30.06,29.97,4,0,8,0.00
2013-10-13,91.9,72.2,60.8,73.5,64.3,59.8,99,80,41,30.12,30.03,8,0,11,0.00
2013-10-14,80.2,70.9,64.4,72.6,67.1,63.3,99,88,69,30.10,30.01,10,1,14,0.00
2013-10-15,73.8,70.6,68.0,72.0,68.9,66.6,98,94,89,30.04,29.95,10,2,13,0.01
2013-10-16,90.9,74.3,66.0,74.8,69.1,64.8,97,85,56,30.01,29.93,8,1,12,0.00
2013-10-17,96.8,75.0,64.2,78.0,69.0,63.4,99,84,47,30.01,29.91,4,0,5,0.01
2013-10-18,85.3,77.8,66.4,76.8,71.3,65.8,99,82,68,30.02,29.94,4,1,7,0.00
2013-10-19,85.3,85.3,85.3,74.0,74.0,74.0,69,69,69,29.99,29.99,2,2,4,0.00
2013-10-20,85.3,85.3,85.3,74.0,74.0,74.0,69,69,69,29.99,29.99,2,2,4,0.00
2013-10-21,87.8,82.0,72.1,79.3,74.0,70.4,98,77,67,30.04,29.95,8,2,11,0.00
2013-10-22,84.2,75.2,71.1,80.5,73.4,70.3,99,94,83,30.00,29.82,6,0,8,0.51
2013-10-23,80.6,69.4,54.9,66.1,57.4,51.1,99,69,40,30.06,29.88,9,2,12,0.01
2013-10-24,80.8,61.5,53.4,58.2,51.0,45.0,96,70,42,30.22,30.06,4,0,8,0.00
2013-10-25,82.6,62.4,50.9,60.0,53.1,46.9,99,76,39,30.30,30.19,6,0,8,0.00
2013-10-26,79.2,60.4,48.2,61.1,53.6,47.4,99,81,49,30.29,30.16,7,1,10,0.00
2013-10-27,85.1,61.0,47.3,62.8,52.1,47.0,99,78,32,30.20,30.12,7,0,8,0.00
2013-10-28,86.9,64.5,50.9,69.1,58.1,50.6,99,83,47,30.26,30.14,6,0,11,0.00
2013-10-29,85.3,67.1,56.7,72.6,61.7,56.1,99,85,53,30.31,30.22,8,1,14,0.00
2013-10-30,87.6,69.4,59.0,74.2,64.1,58.4,99,85,53,30.30,30.18,8,1,12,0.00
2013-10-31,92.5,73.9,64.0,78.7,68.8,62.9,99,86,52,30.19,30.01,4,0,7,0.01
2013-11-1,86.2,74.7,66.4,74.2,69.6,66.0,99,85,57,30.03,29.84,8,1,15,0.00
2013-11-2,75.9,66.8,56.1,72.5,65.4,55.9,99,95,82,29.99,29.79,7,0,11,0.27
2013-11-3,75.7,61.6,51.6,60.9,53.0,47.7,99,77,38,30.22,29.98,11,2,18,0.01
2013-11-4,75.4,66.2,57.9,66.0,60.0,51.9,98,81,67,30.30,30.20,13,4,25,0.04
2013-11-5,75.0,68.6,65.3,70.1,66.8,64.7,99,94,82,30.28,30.20,13,4,20,0.02
2013-11-6,85.6,71.0,61.7,75.5,68.2,61.1,99,91,63,30.21,30.09,7,1,9,0.05
2013-11-7,85.3,72.7,66.2,72.0,68.0,64.8,99,86,53,30.10,29.98,5,0,8,0.00
2013-11-8,70.0,61.8,52.3,66.0,54.2,45.5,87,76,66,30.23,30.05,11,3,19,0.00
2013-11-9,84.2,66.2,54.3,68.1,60.0,53.3,99,82,51,30.27,30.18,9,1,13,0.00
2013-11-10,83.7,67.2,57.2,71.7,62.6,56.8,99,87,52,30.26,30.15,8,1,11,0.00
2013-11-11,84.4,66.6,55.8,70.3,61.4,55.5,99,86,51,30.23,30.14,6,1,10,0.00
2013-11-12,81.9,67.8,61.0,67.7,62.1,49.7,99,84,50,30.17,30.05,8,0,16,0.00
2013-11-13,61.2,53.1,50.0,49.8,45.0,41.5,85,74,62,30.45,30.17,14,5,27,0.00
2013-11-14,72.9,56.6,43.7,61.1,52.6,40.7,99,87,65,30.41,30.25,11,2,17,0.00
2013-11-15,68.9,62.0,53.6,68.3,61.3,52.8,99,97,94,30.26,30.09,4,0,5,0.02
2013-11-16,83.1,69.1,61.0,73.5,66.1,60.4,99,91,63,30.21,30.12,10,1,14,0.01
2013-11-17,88.0,74.0,66.4,78.3,71.8,66.1,99,93,72,30.14,30.02,2,0,5,0.02
2013-11-18,81.0,71.9,66.2,77.2,70.7,65.9,99,96,81,30.05,29.91,5,1,11,0.15
2013-11-19,73.0,64.9,54.7,70.5,58.8,48.1,99,81,66,30.07,29.93,12,3,17,0.01
2013-11-20,72.9,66.5,63.1,68.1,64.4,59.6,99,93,83,30.21,30.05,10,3,14,0.01
2013-11-21,81.0,69.4,64.6,73.8,67.2,64.3,99,93,73,30.28,30.18,8,2,13,0.01
2013-11-22,83.1,70.3,62.1,73.8,66.6,61.5,99,89,66,30.27,30.18,0,0,0,0.02
2013-11-23,85.5,70.6,57.9,73.3,65.6,57.6,99,84,50,30.16,30.03,4,1,11,0.01
2013-11-24,66.7,58.7,52.3,62.4,50.2,43.4,90,74,54,30.38,30.10,17,4,27,0.00
2013-11-25,81.1,64.5,54.5,63.2,56.8,46.7,91,77,50,30.35,30.13,8,2,14,0.00
2013-11-26,80.1,69.7,63.0,78.9,68.5,59.7,99,96,88,30.14,29.72,5,0,10,0.08
2013-11-27,71.6,56.6,40.5,70.9,51.7,34.0,99,84,65,30.26,29.64,12,4,18,0.01
2013-11-28,65.1,45.4,33.3,49.2,38.8,27.8,95,79,54,30.45,30.25,9,2,13,0.00
2013-11-29,69.6,54.5,42.6,58.6,49.6,41.6,99,85,59,30.47,30.40,10,2,17,0.00
2013-11-30,63.0,58.1,55.0,60.6,56.8,52.4,99,95,88,30.42,30.26,9,3,17,0.00
2013-12-1,77.4,62.0,55.2,66.9,58.9,54.4,99,91,68,30.26,30.02,5,1,10,0.00
2013-12-2,75.9,60.0,50.2,64.4,56.1,49.9,99,89,57,30.03,29.85,5,0,8,0.00
2013-12-3,81.7,60.8,48.0,66.2,56.3,47.8,99,87,51,30.01,29.91,6,0,8,0.01
2013-12-4,84.6,67.1,55.6,71.5,62.9,55.3,99,88,57,30.13,29.99,6,0,10,0.00
2013-12-5,66.0,64.6,55.8,65.8,64.0,55.5,99,98,95,30.20,30.10,2,0,2,0.00
2013-12-6,89.1,70.8,60.1,75.6,66.2,59.8,99,87,52,30.20,30.11,7,0,11,0.00
2013-12-7,89.4,71.8,62.6,75.1,67.0,61.8,99,87,52,30.26,30.16,7,0,12,0.00
2013-12-8,83.8,67.3,61.0,73.1,65.2,60.4,99,93,66,30.29,30.16,6,1,10,0.00
2013-12-9,88.3,70.8,59.5,76.7,66.7,59.3,99,88,56,30.21,30.08,7,0,12,0.00
2013-12-10,82.8,67.7,53.2,71.2,64.8,47.9,99,91,60,30.29,30.05,7,1,14,0.04
2013-12-11,67.6,58.3,48.6,62.7,54.7,45.5,93,88,82,30.32,30.25,8,2,11,0.00
2013-12-12,73.8,56.7,41.7,53.6,42.0,28.4,96,64,20,30.41,30.27,8,1,11,0.00
2013-12-13,75.4,54.6,41.4,59.1,50.6,40.6,99,88,56,30.37,30.17,8,1,12,0.01
2013-12-14,79.3,65.4,51.8,74.9,63.7,51.3,99,95,75,30.18,29.92,7,0,13,0.20
2013-12-15,69.8,61.1,48.9,66.0,58.5,44.6,99,91,73,30.19,29.87,8,1,10,0.53
2013-12-16,68.0,48.5,38.3,49.6,42.9,38.0,99,84,46,30.30,30.18,4,0,8,0.00
2013-12-17,74.1,50.3,37.2,50.8,42.5,36.5,99,80,32,30.32,30.19,4,0,8,0.00
2013-12-18,71.6,49.4,38.7,50.6,38.4,28.4,99,75,22,30.34,30.22,8,0,9,0.00
2013-12-19,83.5,54.6,37.2,65.8,49.6,36.5,99,86,50,30.34,30.23,5,0,8,0.00
2013-12-20,86.9,61.4,46.0,73.8,56.7,45.2,99,87,51,30.26,30.16,5,0,8,0.00
2013-12-21,92.1,68.6,54.1,76.5,64.3,53.3,99,88,54,30.18,30.05,2,0,11,0.00
2013-12-22,86.7,76.8,59.2,76.4,70.3,15.1,99,83,63,30.16,29.78,10,1,18,0.00
2013-12-23,86.2,72.1,66.6,73.8,69.5,66.3,99,92,63,29.95,29.85,10,1,14,0.00
2013-12-24,70.2,55.4,42.4,59.7,40.0,35.3,93,59,31,30.11,29.92,8,1,11,0.00
2013-12-25,66.9,52.3,41.4,58.3,48.7,35.1,98,88,72,30.11,30.04,11,2,17,0.00
2013-12-26,66.6,56.2,51.4,56.8,52.8,48.2,99,89,67,30.08,29.98,9,2,11,0.00
2013-12-27,65.3,58.2,51.8,60.4,56.1,50.4,98,93,82,30.13,30.02,8,2,13,0.00
2013-12-28,77.5,65.9,59.5,73.6,63.9,55.5,99,93,85,30.09,29.78,7,1,12,0.02
2013-12-29,73.0,68.0,57.9,72.0,67.3,57.7,99,98,90,29.80,29.67,9,1,13,0.31
2013-12-30,70.9,57.1,48.6,57.8,51.8,48.3,99,85,48,30.00,29.80,4,0,8,0.00
2013-12-31,68.9,57.0,52.2,55.3,52.2,49.3,98,85,54,30.14,29.99,3,0,8,0.00
2014-1-1,61.9,57.2,53.6,61.3,56.4,51.0,99,97,91,30.11,29.88,4,0,6,0.70
2014-1-2,65.1,60.5,54.9,64.9,59.8,49.9,99,98,84,29.88,29.55,8,1,14,0.92